Time;durP1;ratioP1;P1;durP2;ratioP2;P2;SDS_P1;SDS_P2;PMS_P1;PMS_P2;Temp;Humidity;BMP_temperature;BMP_pressure;BME280_temperature;BME280_humidity;BME280_pressure;Samples;Min_cycle;Max_cycle;Signal;HPM_P1;HPM_P2
2023/02/28 00:00:17;;;;;;;;;;;;;;;20.59;49.83;102634.88;5061344;28;2642;-59
2023/02/28 00:02:44;;;;;;;;;;;;;;;20.59;50.05;102637.75;5066433;28;2666;-59
2023/02/28 00:05:11;;;;;;;;;;;;;;;20.59;49.91;102634.88;5065379;28;2800;-59
2023/02/28 00:07:37;;;;;;;;;;;;;;;20.58;49.98;102644.88;5066744;28;2591;-59
2023/02/28 00:10:04;;;;;;;;;;;;;;;20.58;49.99;102642.00;5069059;28;2264;-59
2023/02/28 00:12:30;;;;;;;;;;;;;;;20.56;50.08;102642.59;5067902;28;2191;-59
2023/02/28 00:14:56;;;;;;;;;;;;;;;20.57;49.82;102649.09;5063863;28;2914;-59
2023/02/28 00:17:23;;;;;;;;;;;;;;;20.56;49.81;102641.81;5059913;28;2821;-59
2023/02/28 00:19:50;;;;;;;;;;;;;;;20.56;50.07;102639.72;5062540;28;2458;-59
2023/02/28 00:22:19;;;;;;;;;;;;;;;20.58;50.14;102633.38;5059074;28;2557;-59
2023/02/28 00:24:46;;;;;;;;;;;;;;;20.58;49.98;102642.00;5059819;28;2939;-59
2023/02/28 00:27:13;;;;;;;;;;;;;;;20.57;49.82;102644.13;5062806;28;2695;-59
2023/02/28 00:29:39;;;;;;;;;;;;;;;20.58;49.99;102644.88;5067004;28;1607;-59
2023/02/28 00:32:06;;;;;;;;;;;;;;;20.57;50.04;102643.34;5064656;28;2774;-59
2023/02/28 00:34:37;;;;;;;;;;;;;;;20.56;49.99;102641.81;5065477;28;1715;-59
2023/02/28 00:37:04;;;;;;;;;;;;;;;20.56;49.84;102647.56;5076045;28;2760;-59
2023/02/28 00:39:32;;;;;;;;;;;;;;;20.54;49.82;102641.66;5099849;27;1763;-59
2023/02/28 00:41:59;;;;;;;;;;;;;;;20.54;49.90;102639.53;5062343;28;2506;-59
2023/02/28 00:44:25;;;;;;;;;;;;;;;20.54;49.79;102644.53;5055143;28;2793;-59
2023/02/28 00:46:53;;;;;;;;;;;;;;;20.53;49.81;102648.78;5061247;28;2537;-59
2023/02/28 00:49:23;;;;;;;;;;;;;;;20.51;49.94;102641.50;5058738;28;2753;-59
2023/02/28 00:51:49;;;;;;;;;;;;;;;20.53;49.71;102648.78;5063757;28;1759;-59
2023/02/28 00:54:18;;;;;;;;;;;;;;;20.51;49.79;102646.50;5068112;28;1602;-59
2023/02/28 00:56:46;;;;;;;;;;;;;;;20.51;49.80;102647.25;5063902;28;2858;-58
2023/02/28 00:59:12;;;;;;;;;;;;;;;20.53;49.68;102654.56;5088915;27;2647;-59
2023/02/28 01:01:39;;;;;;;;;;;;;;;20.53;49.79;102648.78;5048862;28;2603;-59
2023/02/28 01:04:05;;;;;;;;;;;;;;;20.54;49.83;102651.03;5096759;27;1910;-59
2023/02/28 01:06:32;;;;;;;;;;;;;;;20.50;49.96;102657.28;5060565;28;1561;-59
2023/02/28 01:08:58;;;;;;;;;;;;;;;20.53;49.86;102654.56;5060612;28;2631;-59
2023/02/28 01:11:24;;;;;;;;;;;;;;;20.51;49.91;102647.25;5047689;28;2808;-59
2023/02/28 01:13:52;;;;;;;;;;;;;;;20.50;49.83;102640.00;5053455;28;2221;-59
2023/02/28 01:16:18;;;;;;;;;;;;;;;20.49;49.74;102644.22;5057448;28;1653;-59
2023/02/28 01:18:44;;;;;;;;;;;;;;;20.49;49.59;102650.00;5047064;28;1712;-59
2023/02/28 01:21:12;;;;;;;;;;;;;;;20.48;49.72;102639.84;5059501;28;2246;-59
2023/02/28 01:23:38;;;;;;;;;;;;;;;20.48;49.71;102648.50;5057312;28;2833;-59
2023/02/28 01:26:09;;;;;;;;;;;;;;;20.49;49.63;102644.22;5051648;28;2926;-59
2023/02/28 01:28:38;;;;;;;;;;;;;;;20.49;49.99;102647.09;5070994;28;2996;-59
2023/02/28 01:31:05;;;;;;;;;;;;;;;20.49;49.91;102650.00;5057677;28;2968;-59
2023/02/28 01:33:31;;;;;;;;;;;;;;;20.50;49.95;102633.47;5055223;28;2959;-59
2023/02/28 01:36:18;;;;;;;;;;;;;;;20.50;49.85;102630.59;5089223;27;2810;-59
2023/02/28 01:38:45;;;;;;;;;;;;;;;20.50;49.88;102630.59;5060426;28;2821;-59
2023/02/28 01:41:14;;;;;;;;;;;;;;;20.50;49.76;102630.59;5062860;28;2907;-59
2023/02/28 01:43:44;;;;;;;;;;;;;;;20.49;49.84;102626.97;5088703;27;3045;-59
2023/02/28 01:46:11;;;;;;;;;;;;;;;20.47;49.76;102623.19;5063508;28;2915;-59
2023/02/28 01:48:38;;;;;;;;;;;;;;;20.47;49.71;102621.06;5071676;28;2925;-59
2023/02/28 01:51:10;;;;;;;;;;;;;;;20.46;49.69;102616.69;5094992;27;3000;-59
2023/02/28 01:53:37;;;;;;;;;;;;;;;20.45;49.73;102632.41;5055372;28;3144;-59
2023/02/28 01:56:04;;;;;;;;;;;;;;;20.45;49.87;102625.91;5075186;28;3006;-59
2023/02/28 01:58:31;;;;;;;;;;;;;;;20.45;49.74;102632.41;5084162;28;2895;-59
2023/02/28 02:00:57;;;;;;;;;;;;;;;20.45;49.70;102635.28;5049976;28;2931;-59
2023/02/28 02:03:25;;;;;;;;;;;;;;;20.45;49.64;102626.66;5053092;28;3090;-59
2023/02/28 02:05:51;;;;;;;;;;;;;;;20.46;49.65;102636.81;5071330;28;3042;-60
2023/02/28 02:08:25;;;;;;;;;;;;;;;20.47;50.03;102634.69;5063349;28;3066;-59
2023/02/28 02:10:53;;;;;;;;;;;;;;;20.46;49.94;102622.44;5074163;28;2934;-59
2023/02/28 02:13:33;;;;;;;;;;;;;;;20.45;49.75;102620.91;5071340;28;2788;-59
2023/02/28 02:16:23;;;;;;;;;;;;;;;20.45;49.80;102620.91;5107603;27;3219;-59
2023/02/28 02:18:53;;;;;;;;;;;;;;;20.45;49.77;102631.66;5067252;28;2780;-59
2023/02/28 02:21:32;;;;;;;;;;;;;;;20.44;49.75;102630.16;5093299;27;3026;-59
2023/02/28 02:24:11;;;;;;;;;;;;;;;20.43;49.60;102634.38;5099297;27;2885;-59
2023/02/28 02:26:51;;;;;;;;;;;;;;;20.42;49.83;102625.00;5078801;28;2825;-59
2023/02/28 02:29:30;;;;;;;;;;;;;;;20.42;49.52;102630.00;5079422;28;2906;-59
2023/02/28 02:32:05;;;;;;;;;;;;;;;20.42;49.60;102635.75;5081152;28;2883;-59
2023/02/28 02:34:39;;;;;;;;;;;;;;;20.40;49.52;102627.72;5073078;28;3018;-59
2023/02/28 02:37:11;;;;;;;;;;;;;;;20.41;49.48;102626.38;5107027;27;1678;-59
2023/02/28 02:39:52;;;;;;;;;;;;;;;20.42;49.45;102627.13;5097946;27;2742;-59
2023/02/28 02:42:24;;;;;;;;;;;;;;;20.42;49.75;102633.63;5074179;28;2134;-59
2023/02/28 02:44:55;;;;;;;;;;;;;;;20.42;49.50;102632.88;5104580;27;2678;-60
2023/02/28 02:47:24;;;;;;;;;;;;;;;20.42;49.80;102632.88;5103228;27;2755;-59
2023/02/28 02:49:51;;;;;;;;;;;;;;;20.42;49.39;102627.13;5069378;28;2939;-59
2023/02/28 02:52:18;;;;;;;;;;;;;;;20.41;49.45;102634.22;5110062;27;2827;-59
2023/02/28 02:54:45;;;;;;;;;;;;;;;20.40;49.46;102636.38;5104607;27;2977;-59
2023/02/28 02:57:13;;;;;;;;;;;;;;;20.40;49.36;102629.84;5087807;28;2951;-59
2023/02/28 02:59:39;;;;;;;;;;;;;;;20.39;49.36;102629.09;5048363;28;2958;-59
2023/02/28 03:02:06;;;;;;;;;;;;;;;20.39;49.42;102623.34;5069615;28;2902;-59
2023/02/28 03:04:36;;;;;;;;;;;;;;;20.38;49.40;102615.31;5067672;28;2874;-59
2023/02/28 03:07:02;;;;;;;;;;;;;;;20.39;49.44;102625.47;5092899;28;2897;-59
2023/02/28 03:09:29;;;;;;;;;;;;;;;20.39;49.41;102623.34;5072358;28;2929;-58
2023/02/28 03:11:55;;;;;;;;;;;;;;;20.40;49.53;102624.84;5090670;27;2922;-59
2023/02/28 03:14:21;;;;;;;;;;;;;;;20.40;49.58;102630.59;5067219;28;2754;-59
2023/02/28 03:16:51;;;;;;;;;;;;;;;20.39;49.55;102629.09;5070475;28;2852;-59
2023/02/28 03:19:20;;;;;;;;;;;;;;;20.39;49.64;102634.84;5070198;28;2830;-59
2023/02/28 03:21:55;;;;;;;;;;;;;;;20.39;49.63;102634.09;5069113;28;2891;-59
2023/02/28 03:24:27;;;;;;;;;;;;;;;20.39;49.46;102639.88;5091599;28;3314;-59
2023/02/28 03:26:55;;;;;;;;;;;;;;;20.38;49.49;102644.84;5092733;28;3567;-59
2023/02/28 03:29:45;;;;;;;;;;;;;;;20.37;49.62;102649.09;5090964;27;2993;-59
2023/02/28 03:32:24;;;;;;;;;;;;;;;20.36;49.46;102635.31;5058909;28;2906;-59
2023/02/28 03:34:54;;;;;;;;;;;;;;;20.35;49.46;102643.19;5090206;28;2814;-59
2023/02/28 03:37:21;;;;;;;;;;;;;;;20.35;49.41;102640.31;5095932;28;1841;-59
2023/02/28 03:39:49;;;;;;;;;;;;;;;20.34;49.38;102644.56;5091318;28;3509;-59
2023/02/28 03:42:17;;;;;;;;;;;;;;;20.34;49.39;102641.69;5073902;28;2695;-59
2023/02/28 03:44:45;;;;;;;;;;;;;;;20.36;49.58;102641.06;5106474;28;2861;-59
2023/02/28 03:47:21;;;;;;;;;;;;;;;20.35;49.54;102648.94;5105520;28;2960;-59
2023/02/28 03:49:54;;;;;;;;;;;;;;;20.36;49.38;102641.81;5071774;28;3228;-59
2023/02/28 03:52:20;;;;;;;;;;;;;;;20.37;49.41;102646.22;5075119;28;3110;-59
2023/02/28 03:54:50;;;;;;;;;;;;;;;20.38;49.50;102650.59;5103805;28;3267;-59
2023/02/28 03:57:22;;;;;;;;;;;;;;;20.39;49.49;102640.63;5105872;28;2413;-59
2023/02/28 03:59:50;;;;;;;;;;;;;;;20.40;49.28;102652.88;5050698;28;3343;-59
2023/02/28 04:02:18;;;;;;;;;;;;;;;20.39;49.38;102652.13;5101626;28;2601;-59
2023/02/28 04:04:48;;;;;;;;;;;;;;;20.40;49.29;102650.75;5054682;28;3101;-60
2023/02/28 04:07:15;;;;;;;;;;;;;;;20.39;49.32;102651.38;5061175;28;2955;-59
2023/02/28 04:09:41;;;;;;;;;;;;;;;20.38;49.25;102653.47;5057537;28;3023;-59
2023/02/28 04:12:07;;;;;;;;;;;;;;;20.36;49.17;102656.19;5063847;28;3021;-59
2023/02/28 04:14:34;;;;;;;;;;;;;;;20.37;49.20;102654.84;5059146;28;2984;-59
2023/02/28 04:17:00;;;;;;;;;;;;;;;20.36;49.16;102647.56;5058458;28;1827;-59
2023/02/28 04:19:26;;;;;;;;;;;;;;;20.34;48.89;102650.31;5060911;28;2900;-59
2023/02/28 04:21:53;;;;;;;;;;;;;;;20.33;48.94;102651.66;5056506;28;3102;-59
2023/02/28 04:24:20;;;;;;;;;;;;;;;20.34;48.89;102650.31;5055544;28;2856;-59
2023/02/28 04:26:47;;;;;;;;;;;;;;;20.34;48.95;102655.28;5052791;28;2915;-59
2023/02/28 04:29:15;;;;;;;;;;;;;;;20.34;48.82;102656.06;5065665;28;2880;-59
2023/02/28 04:31:41;;;;;;;;;;;;;;;20.34;48.82;102656.06;5089176;28;3010;-59
2023/02/28 04:34:08;;;;;;;;;;;;;;;20.33;48.82;102654.53;5073711;28;2981;-59
2023/02/28 04:36:34;;;;;;;;;;;;;;;20.32;48.68;102658.00;5099936;28;3067;-59
2023/02/28 04:39:00;;;;;;;;;;;;;;;20.31;48.77;102657.25;5077059;28;2839;-59
2023/02/28 04:41:27;;;;;;;;;;;;;;;20.30;48.80;102658.63;5073226;28;2965;-59
2023/02/28 04:43:57;;;;;;;;;;;;;;;20.30;48.66;102664.38;5072590;28;2938;-59
2023/02/28 04:46:24;;;;;;;;;;;;;;;20.29;48.61;102655.00;5077504;28;2859;-59
2023/02/28 04:48:50;;;;;;;;;;;;;;;20.32;48.49;102664.53;5065495;28;2921;-59
2023/02/28 04:51:17;;;;;;;;;;;;;;;20.32;48.60;102664.53;5064439;28;2900;-59
2023/02/28 04:53:43;;;;;;;;;;;;;;;20.33;48.76;102666.03;5063896;28;3367;-59
2023/02/28 04:56:13;;;;;;;;;;;;;;;20.33;48.97;102666.03;5059662;28;3006;-59
2023/02/28 04:58:39;;;;;;;;;;;;;;;20.34;48.94;102661.81;5068067;28;2805;-59
2023/02/28 05:01:12;;;;;;;;;;;;;;;20.33;49.36;102665.28;5055058;28;2996;-59
2023/02/28 05:03:40;;;;;;;;;;;;;;;20.35;49.09;102669.09;5065330;28;3218;-59
2023/02/28 05:06:07;;;;;;;;;;;;;;;20.35;49.07;102669.09;5059656;28;2876;-59
2023/02/28 05:08:33;;;;;;;;;;;;;;;20.35;48.91;102674.84;5072027;28;3015;-59
2023/02/28 05:11:03;;;;;;;;;;;;;;;20.35;48.93;102674.84;5072162;28;2801;-59
2023/02/28 05:13:29;;;;;;;;;;;;;;;20.34;48.83;102679.09;5072105;28;2992;-60
2023/02/28 05:15:55;;;;;;;;;;;;;;;20.32;48.94;102676.06;5074204;28;2905;-59
2023/02/28 05:18:22;;;;;;;;;;;;;;;20.32;48.75;102681.81;5073161;28;2687;-59
2023/02/28 05:20:48;;;;;;;;;;;;;;;20.31;48.76;102674.53;5065780;28;2947;-59
2023/02/28 05:23:22;;;;;;;;;;;;;;;20.30;48.75;102668.00;5079029;28;1643;-58
2023/02/28 05:25:48;;;;;;;;;;;;;;;20.29;48.85;102675.16;5053998;28;2844;-58
2023/02/28 05:28:14;;;;;;;;;;;;;;;20.30;48.65;102673.03;5074605;28;2648;-59
2023/02/28 05:30:41;;;;;;;;;;;;;;;20.29;48.74;102680.91;5053492;28;2793;-59
2023/02/28 05:33:09;;;;;;;;;;;;;;;20.29;48.53;102678.03;5077484;28;2910;-60
2023/02/28 05:35:37;;;;;;;;;;;;;;;20.28;48.53;102681.50;5112161;27;2604;-59
2023/02/28 05:38:03;;;;;;;;;;;;;;;20.28;48.50;102684.38;5081262;28;1703;-59
2023/02/28 05:40:30;;;;;;;;;;;;;;;20.26;48.38;102684.22;5092470;27;2930;-60
2023/02/28 05:42:56;;;;;;;;;;;;;;;20.25;48.28;102688.47;5061038;28;3248;-59
2023/02/28 05:45:22;;;;;;;;;;;;;;;20.25;48.31;102679.84;5059373;28;2907;-59
2023/02/28 05:47:49;;;;;;;;;;;;;;;20.24;48.45;102693.44;5063609;28;2860;-59
2023/02/28 05:50:15;;;;;;;;;;;;;;;20.23;48.25;102686.19;5093736;27;2919;-59
2023/02/28 05:52:42;;;;;;;;;;;;;;;20.22;48.29;102695.41;5062321;28;2884;-59
2023/02/28 05:55:08;;;;;;;;;;;;;;;20.22;48.16;102701.16;5062843;28;3038;-59
2023/02/28 05:57:35;;;;;;;;;;;;;;;20.24;48.45;102698.44;5090008;27;2884;-59
2023/02/28 06:00:01;;;;;;;;;;;;;;;20.24;48.54;102709.94;5060920;28;2915;-59
2023/02/28 06:02:38;;;;;;;;;;;;;;;20.25;48.42;102711.47;5052929;28;2918;-59
2023/02/28 06:05:04;;;;;;;;;;;;;;;20.32;48.62;102713.47;5055054;28;2950;-61
2023/02/28 06:07:31;;;;;;;;;;;;;;;20.36;48.21;102710.88;5054627;28;3840;-63
2023/02/28 06:09:57;;;;;;;;;;;;;;;20.40;48.37;102713.31;5059809;28;3028;-62
2023/02/28 06:12:23;;;;;;;;;;;;;;;20.44;48.70;102699.97;5053533;28;3001;-62
2023/02/28 06:14:50;;;;;;;;;;;;;;;20.50;48.82;102699.66;5058161;28;2785;-61
2023/02/28 06:17:16;;;;;;;;;;;;;;;20.45;48.94;102707.25;5055569;28;3058;-61
2023/02/28 06:19:43;;;;;;;;;;;;;;;20.64;49.74;102711.53;5052731;28;4679;-66
2023/02/28 06:22:09;;;;;;;;;;;;;;;20.74;50.45;102706.53;5046489;28;3162;-63
2023/02/28 06:24:35;;;;;;;;;;;;;;;20.81;50.09;102717.13;5056457;28;3010;-68
2023/02/28 06:27:04;;;;;;;;;;;;;;;20.84;50.11;102713.03;5059695;28;3527;-66
2023/02/28 06:29:32;;;;;;;;;;;;;;;20.71;49.22;102722.16;5068063;28;1704;-67
2023/02/28 06:31:58;;;;;;;;;;;;;;;20.57;49.68;102721.84;5075962;28;3674;-66
2023/02/28 06:34:24;;;;;;;;;;;;;;;20.74;49.38;102720.91;5067721;28;2892;-70
2023/02/28 06:36:51;;;;;;;;;;;;;;;20.80;49.64;102729.25;5067598;28;3425;-71
2023/02/28 06:39:17;;;;;;;;;;;;;;;20.84;49.36;102727.41;5062146;28;2972;-70
2023/02/28 06:41:45;;;;;;;;;;;;;;;20.88;49.31;102733.47;5062430;28;3631;-69
2023/02/28 06:44:21;;;;;;;;;;;;;;;20.89;49.29;102737.91;5056177;28;4397;-65
2023/02/28 06:46:47;;;;;;;;;;;;;;;20.90;49.43;102733.63;5066836;28;3719;-63
2023/02/28 06:49:14;;;;;;;;;;;;;;;20.90;49.48;102733.63;5068938;28;3179;-70
2023/02/28 06:51:41;;;;;;;;;;;;;;;20.95;49.57;102745.47;5095001;27;4970;-66
2023/02/28 06:54:10;;;;;;;;;;;;;;;20.95;49.04;102742.59;5067404;28;3073;-65
2023/02/28 06:56:36;;;;;;;;;;;;;;;20.98;48.63;102739.25;5072246;28;2902;-66
2023/02/28 06:59:03;;;;;;;;;;;;;;;21.01;48.51;102749.56;5069807;28;2997;-65
2023/02/28 07:01:31;;;;;;;;;;;;;;;21.08;48.61;102747.88;5065705;28;1655;-65
2023/02/28 07:03:58;;;;;;;;;;;;;;;20.91;48.48;102755.34;5066969;28;4887;-61
2023/02/28 07:06:24;;;;;;;;;;;;;;;18.59;38.03;102753.59;5072003;28;2461;-62
2023/02/28 07:08:52;;;;;;;;;;;;;;;19.25;40.92;102754.00;5068424;28;3720;-63
2023/02/28 07:11:18;;;;;;;;;;;;;;;20.14;41.72;102750.22;5070455;28;1732;-62
2023/02/28 07:13:46;;;;;;;;;;;;;;;20.48;42.63;102754.22;5069136;28;3017;-65
2023/02/28 07:16:13;;;;;;;;;;;;;;;20.60;43.41;102751.53;5072850;28;3026;-63
2023/02/28 07:18:39;;;;;;;;;;;;;;;20.27;42.01;102760.53;5071132;28;2668;-62
2023/02/28 07:21:07;;;;;;;;;;;;;;;20.05;40.15;102762.44;5065167;28;2989;-62
2023/02/28 07:23:33;;;;;;;;;;;;;;;19.91;38.64;102756.34;5061313;28;3138;-62
2023/02/28 07:26:00;;;;;;;;;;;;;;;19.82;37.46;102757.06;5070723;28;1914;-62
2023/02/28 07:28:26;;;;;;;;;;;;;;;19.75;36.98;102752.19;5059046;28;2015;-62
2023/02/28 07:30:52;;;;;;;;;;;;;;;19.73;36.30;102763.53;5073387;28;1706;-62
2023/02/28 07:33:19;;;;;;;;;;;;;;;19.92;36.53;102757.84;5068572;28;2803;-62
2023/02/28 07:35:45;;;;;;;;;;;;;;;20.32;37.24;102762.38;5069854;28;2992;-61
2023/02/28 07:38:13;;;;;;;;;;;;;;;20.51;37.86;102762.38;5073078;28;2159;-62
2023/02/28 07:40:39;;;;;;;;;;;;;;;20.64;38.98;102758.34;5071775;28;1611;-63
2023/02/28 07:43:06;;;;;;;;;;;;;;;20.52;39.53;102760.25;5072216;28;1799;-62
2023/02/28 07:45:34;;;;;;;;;;;;;;;20.42;39.92;102766.00;5067919;28;3123;-68
2023/02/28 07:48:00;;;;;;;;;;;;;;;20.25;40.56;102764.03;5065491;28;3658;-67
2023/02/28 07:50:30;;;;;;;;;;;;;;;20.46;40.31;102759.81;5061781;28;4687;-69
2023/02/28 07:52:57;;;;;;;;;;;;;;;20.20;39.29;102773.69;5061658;28;3945;-65
2023/02/28 07:55:24;;;;;;;;;;;;;;;20.15;39.46;102768.22;5071424;28;3064;-69
2023/02/28 07:57:50;;;;;;;;;;;;;;;20.39;38.67;102766.47;5070882;28;2491;-70
2023/02/28 08:00:16;;;;;;;;;;;;;;;20.51;38.35;102762.38;5072934;28;1800;-71
2023/02/28 08:02:43;;;;;;;;;;;;;;;20.57;38.26;102765.03;5068898;28;1771;-71
2023/02/28 08:05:09;;;;;;;;;;;;;;;20.56;37.66;102762.69;5066266;28;1682;-68
2023/02/28 08:07:36;;;;;;;;;;;;;;;20.43;38.24;102764.66;5061318;28;2729;-67
2023/02/28 08:10:02;;;;;;;;;;;;;;;20.67;38.60;102765.03;5068431;28;4384;-67
2023/02/28 08:12:29;;;;;;;;;;;;;;;20.81;39.24;102759.56;5069134;28;2645;-68
2023/02/28 08:14:55;;;;;;;;;;;;;;;20.89;39.60;102760.16;5076094;28;2183;-74
2023/02/28 08:17:21;;;;;;;;;;;;;;;20.92;39.81;102753.94;5066073;28;2478;-69
2023/02/28 08:19:48;;;;;;;;;;;;;;;20.97;40.25;102760.03;5070448;28;4704;-71
2023/02/28 08:22:14;;;;;;;;;;;;;;;21.02;40.42;102758.94;5074384;28;4111;-69
2023/02/28 08:24:41;;;;;;;;;;;;;;;21.01;40.76;102761.06;5074260;28;4040;-71
2023/02/28 08:27:07;;;;;;;;;;;;;;;21.05;41.32;102760.59;5077906;28;1981;-71
2023/02/28 08:29:34;;;;;;;;;;;;;;;21.07;41.14;102755.78;5076611;28;1857;-74
2023/02/28 08:32:00;;;;;;;;;;;;;;;21.08;41.67;102763.03;5109413;27;1881;-70
2023/02/28 08:34:27;;;;;;;;;;;;;;;20.74;41.85;102772.00;5077845;28;1641;-70
2023/02/28 08:36:53;;;;;;;;;;;;;;;20.57;40.02;102764.25;5066466;28;2433;-71
2023/02/28 08:39:20;;;;;;;;;;;;;;;20.72;40.45;102761.06;5065331;28;4484;-65
2023/02/28 08:41:46;;;;;;;;;;;;;;;20.83;40.76;102757.59;5071618;28;3874;-70
2023/02/28 08:44:18;;;;;;;;;;;;;;;20.85;41.64;102766.38;5073512;28;2369;-66
2023/02/28 08:46:45;;;;;;;;;;;;;;;20.87;42.09;102757.91;5071609;28;2760;-69
2023/02/28 08:49:11;;;;;;;;;;;;;;;20.84;41.89;102767.72;5067103;28;2755;-70
2023/02/28 08:51:38;;;;;;;;;;;;;;;20.82;42.10;102770.50;5075542;28;2564;-68
2023/02/28 08:54:04;;;;;;;;;;;;;;;21.04;42.55;102765.63;5066974;28;2852;-66
2023/02/28 08:56:30;;;;;;;;;;;;;;;21.01;42.76;102757.44;5067911;28;2747;-67
2023/02/28 08:58:57;;;;;;;;;;;;;;;21.21;42.76;102766.81;5071015;28;2797;-69
2023/02/28 09:01:27;;;;;;;;;;;;;;;21.42;42.32;102761.19;5073131;28;2762;-70
2023/02/28 09:03:54;;;;;;;;;;;;;;;21.44;42.10;102763.44;5073848;28;3470;-71
2023/02/28 09:06:25;;;;;;;;;;;;;;;17.55;29.96;102764.75;5065103;28;2325;-63
2023/02/28 09:08:52;;;;;;;;;;;;;;;17.94;34.04;102759.56;5072961;28;1695;-62
2023/02/28 09:11:18;;;;;;;;;;;;;;;18.67;33.00;102759.28;5076648;28;1589;-61
2023/02/28 09:13:45;;;;;;;;;;;;;;;19.63;35.08;102772.06;5074958;28;1694;-66
2023/02/28 09:16:12;;;;;;;;;;;;;;;20.23;36.05;102771.75;5065818;28;2749;-65
2023/02/28 09:18:39;;;;;;;;;;;;;;;20.46;37.13;102772.09;5073959;28;2273;-67
2023/02/28 09:21:09;;;;;;;;;;;;;;;20.62;37.82;102771.84;5076150;28;1748;-65
2023/02/28 09:23:37;;;;;;;;;;;;;;;20.65;38.50;102764.88;5073836;28;2167;-65
2023/02/28 09:26:04;;;;;;;;;;;;;;;20.69;38.92;102759.41;5076640;28;2498;-65
2023/02/28 09:28:30;;;;;;;;;;;;;;;20.73;39.27;102768.38;5101828;27;4245;-64
2023/02/28 09:30:58;;;;;;;;;;;;;;;20.71;39.79;102763.19;5106078;27;3922;-64
2023/02/28 09:33:25;;;;;;;;;;;;;;;20.71;40.17;102762.44;5070233;28;2625;-64
2023/02/28 09:35:57;;;;;;;;;;;;;;;20.71;40.84;102759.56;5071800;28;2884;-60
2023/02/28 09:38:23;;;;;;;;;;;;;;;20.59;40.60;102765.16;5061652;28;2781;-61
2023/02/28 09:40:50;;;;;;;;;;;;;;;20.58;40.46;102760.00;5070218;28;2137;-61
2023/02/28 09:43:56;;;;;;;;;;;;;;;20.55;41.05;102769.81;5063219;28;2820;-61
2023/02/28 09:46:26;;;;;;;;;;;;;;;20.53;40.50;102758.16;5006165;28;4513;-61
2023/02/28 09:48:52;;;;;;;;;;;;;;;20.58;39.93;102754.25;5053868;28;2923;-64
2023/02/28 09:51:30;;;;;;;;;;;;;;;20.68;40.50;102763.66;5055690;28;3411;-66
2023/02/28 09:53:56;;;;;;;;;;;;;;;20.78;41.04;102760.78;5066777;28;2891;-67
2023/02/28 09:56:31;;;;;;;;;;;;;;;20.85;41.08;102760.63;5061778;28;3062;-70
2023/02/28 09:59:02;;;;;;;;;;;;;;;20.88;41.20;102764.41;5096363;27;4351;-70
2023/02/28 10:01:36;;;;;;;;;;;;;;;20.82;41.62;102766.81;5095290;27;3477;-66
2023/02/28 10:04:04;;;;;;;;;;;;;;;20.56;42.43;102762.69;5100548;27;2241;-61
2023/02/28 10:06:36;;;;;;;;;;;;;;;20.89;41.52;102758.06;5096755;27;3010;-66
2023/02/28 10:09:20;;;;;;;;;;;;;;;21.07;41.23;102764.41;5097159;27;2768;-61
2023/02/28 10:11:46;;;;;;;;;;;;;;;21.17;41.51;102764.41;5095371;27;3086;-61
2023/02/28 10:14:20;;;;;;;;;;;;;;;21.20;41.79;102760.28;5096990;27;2814;-62
2023/02/28 10:16:53;;;;;;;;;;;;;;;21.27;41.74;102762.25;5068626;28;2173;-68
2023/02/28 10:19:21;;;;;;;;;;;;;;;21.20;42.02;102762.41;5096613;27;2897;-65
2023/02/28 10:21:49;;;;;;;;;;;;;;;21.24;42.02;102766.34;5097766;27;2978;-64
2023/02/28 10:24:20;;;;;;;;;;;;;;;21.19;41.94;102758.00;5099615;27;1676;-65
2023/02/28 10:26:47;;;;;;;;;;;;;;;21.28;42.39;102755.13;5094318;27;3121;-66
2023/02/28 10:29:13;;;;;;;;;;;;;;;21.01;42.30;102754.56;5065954;28;2548;-62
2023/02/28 10:31:40;;;;;;;;;;;;;;;20.86;42.28;102764.25;5069305;28;2950;-66
2023/02/28 10:34:07;;;;;;;;;;;;;;;20.74;42.06;102755.47;5066997;28;1754;-65
2023/02/28 10:36:33;;;;;;;;;;;;;;;20.74;42.41;102758.34;5068420;28;1650;-65
2023/02/28 10:39:01;;;;;;;;;;;;;;;20.82;41.93;102756.09;5066931;28;1711;-64
2023/02/28 10:41:29;;;;;;;;;;;;;;;20.86;42.01;102762.13;5068938;28;1827;-65
2023/02/28 10:44:11;;;;;;;;;;;;;;;20.87;42.47;102763.66;5069605;28;1873;-63
2023/02/28 10:46:38;;;;;;;;;;;;;;;20.90;42.54;102756.69;5068823;28;1922;-64
2023/02/28 10:49:05;;;;;;;;;;;;;;;20.91;42.67;102758.22;5100467;27;1885;-64
2023/02/28 10:51:36;;;;;;;;;;;;;;;20.93;42.60;102766.97;5094094;27;1767;-64
2023/02/28 10:54:02;;;;;;;;;;;;;;;20.90;42.70;102750.91;5065323;28;2241;-64
2023/02/28 10:56:28;;;;;;;;;;;;;;;20.91;42.88;102752.44;5098649;27;1945;-65
2023/02/28 10:59:08;;;;;;;;;;;;;;;20.88;42.76;102753.66;5064166;28;1712;-66
2023/02/28 11:01:38;;;;;;;;;;;;;;;20.98;42.70;102747.13;5064083;28;1710;-62
2023/02/28 11:04:18;;;;;;;;;;;;;;;20.93;42.87;102752.56;5067213;28;1702;-60
2023/02/28 11:06:44;;;;;;;;;;;;;;;20.99;42.86;102751.53;5066517;28;1977;-62
2023/02/28 11:09:24;;;;;;;;;;;;;;;20.97;42.86;102737.72;5097080;27;1865;-61
2023/02/28 11:11:52;;;;;;;;;;;;;;;20.98;42.94;102735.59;5090389;27;4246;-60
2023/02/28 11:14:23;;;;;;;;;;;;;;;21.10;43.24;102734.38;5063120;28;4045;-62
2023/02/28 11:16:50;;;;;;;;;;;;;;;21.39;43.13;102741.44;5092393;27;4564;-61
2023/02/28 11:19:24;;;;;;;;;;;;;;;21.63;42.40;102733.81;5059780;28;4735;-63
2023/02/28 11:21:57;;;;;;;;;;;;;;;21.68;42.81;102730.59;5061842;28;1761;-62
2023/02/28 11:24:27;;;;;;;;;;;;;;;21.71;42.39;102725.72;5095136;28;4160;-63
2023/02/28 11:26:53;;;;;;;;;;;;;;;21.34;42.39;102712.31;5061973;28;2266;-65
2023/02/28 11:29:26;;;;;;;;;;;;;;;21.30;42.72;102714.16;5090126;28;1944;-66
2023/02/28 11:32:08;;;;;;;;;;;;;;;21.37;42.91;102718.22;5061074;28;1715;-65
2023/02/28 11:34:35;;;;;;;;;;;;;;;21.33;42.92;102699.28;5062458;28;1655;-69
2023/02/28 11:37:04;;;;;;;;;;;;;;;21.33;42.48;102710.81;5056834;28;4304;-67
2023/02/28 11:39:31;;;;;;;;;;;;;;;21.27;42.92;102706.75;5093735;28;2470;-65
2023/02/28 11:41:57;;;;;;;;;;;;;;;21.28;42.72;102699.59;5091498;28;2477;-64
2023/02/28 11:44:23;;;;;;;;;;;;;;;21.34;42.76;102700.03;5067781;28;1859;-67
2023/02/28 11:47:01;;;;;;;;;;;;;;;21.40;42.49;102696.84;5064564;28;1918;-68
2023/02/28 11:49:34;;;;;;;;;;;;;;;21.39;42.58;102692.44;5112976;27;1627;-68
2023/02/28 11:52:03;;;;;;;;;;;;;;;21.36;43.03;102688.66;5078046;28;2264;-67
2023/02/28 11:54:36;;;;;;;;;;;;;;;21.42;42.76;102694.16;5101986;27;2032;-70
2023/02/28 11:57:26;;;;;;;;;;;;;;;21.43;43.15;102701.41;5109696;27;1857;-69
2023/02/28 11:59:56;;;;;;;;;;;;;;;21.44;42.87;102709.47;5074074;28;1805;-66
2023/02/28 12:02:29;;;;;;;;;;;;;;;21.45;42.86;102693.66;5109746;27;1869;-71
2023/02/28 12:05:14;;;;;;;;;;;;;;;21.54;42.97;102700.78;5076936;28;1642;-65
2023/02/28 12:07:49;;;;;;;;;;;;;;;21.46;42.79;102700.97;5072766;28;2631;-68
2023/02/28 12:10:25;;;;;;;;;;;;;;;21.45;43.04;102698.69;5109513;27;1675;-77
2023/02/28 12:13:05;;;;;;;;;;;;;;;21.45;43.26;102704.44;5073515;28;2341;-67
2023/02/28 12:15:43;;;;;;;;;;;;;;;16.94;28.02;102699.97;5069300;28;4458;-61
2023/02/28 12:18:17;;;;;;;;;;;;;;;18.66;40.89;102700.34;5071520;28;4188;-63
2023/02/28 12:20:46;;;;;;;;;;;;;;;19.93;38.81;102699.00;5071507;28;3583;-63
2023/02/28 12:23:19;;;;;;;;;;;;;;;20.41;38.71;102695.44;5108421;27;1646;-63
2023/02/28 12:25:50;;;;;;;;;;;;;;;20.87;39.80;102694.53;5099895;27;4560;-67
2023/02/28 12:28:17;;;;;;;;;;;;;;;21.19;39.83;102689.63;5106254;27;2652;-65
2023/02/28 12:30:48;;;;;;;;;;;;;;;21.33;40.21;102699.28;5110237;27;1880;-65
2023/02/28 12:33:14;;;;;;;;;;;;;;;21.44;40.50;102689.28;5101848;27;2395;-64
2023/02/28 12:35:43;;;;;;;;;;;;;;;21.55;40.76;102684.97;5106467;27;1844;-65
2023/02/28 12:38:17;;;;;;;;;;;;;;;21.59;40.61;102679.50;5062172;28;1596;-65
2023/02/28 12:40:44;;;;;;;;;;;;;;;21.63;40.77;102676.91;5069868;28;4488;-64
2023/02/28 12:43:10;;;;;;;;;;;;;;;21.68;41.04;102675.81;5106256;27;1767;-64
2023/02/28 12:45:39;;;;;;;;;;;;;;;21.68;40.83;102670.03;5073398;28;3968;-65
2023/02/28 12:48:07;;;;;;;;;;;;;;;21.75;41.07;102657.56;5073330;28;1973;-66
2023/02/28 12:50:34;;;;;;;;;;;;;;;21.80;40.94;102663.63;5101257;27;1813;-66
2023/02/28 12:53:02;;;;;;;;;;;;;;;21.82;40.88;102652.22;5070091;28;3889;-66
2023/02/28 12:55:37;;;;;;;;;;;;;;;21.82;40.84;102650.09;5062701;28;4769;-67